Accueil
METAR-TAF:

METAR-TAF

Aéroports :

Aéroport de Bucarest-Henri-Coandă

Bucarest, Roumanie

latitude: 44-33N, longitude: 026-06E, altitude: 95 m

Observation

Le bulletin a été fait il y a 23 minutes, à 12:30 UTC
Vent 11 kt de ouest
Température 23°C
Humidité 57%
Pression 1010 hPa
Visibilité 10 km ou plus
Quelques nuages à une hauteur de 5000 ft, Cumulus congestus.

METAR: LROP 231230Z 27011KT 9999 FEW050TCU 23/14 Q1010 NOSIG

Heure: 15:53 (12:53 UTC)

Prévision

Le bulletin a été fait il y a 1 heure et 53 minutes, à 11:00 UTC
Prévision valable du 23 à 12 UTC au 24 à 12 UTC
Vent 12 kt de ouest/sud-ouest
Visibilité 10 km ou plus
pas de nuages en-dessous de 1500 mètres et pas de cumulonimbus.
Evoluant progressivement
du 23 à 17 UTC au 23 à 19 UTC
Vent 4 kt de direction variable

TAF: LROP 231100Z 2312/2412 25012KT CAVOK BECMG 2317/2319 VRB04KT

Observations et prévisions météorologiques de plus de 4000 aéroports (messages METAR et TAF).

Les stations disponibles sont représentées par des disques jaunes et rouges sur la carte.

Passer la souris dessus pour voir le nom de la station.

Cliquer dessus pour voir les observations et prévisions météorologiques.

Pour changer de carte: cliquez sur les boutons verts avec une croix noire pour zoomer, sur le bouton vert avec un tiret pour effectuer un zoom arrière, ou sur les flèches vertes pour les cartes adjacentes.


METAR-TAF: